Lawn Ridge, Illinois
Current Conditions -  °F | °C
As of 5:55 AM on Monday 22 Dec 2014 (Local Time) from KC75 Reporting Station
Overcast Overcast  
Wind Chill: 28°   Ceiling: 5000
Heat Index: 33°   Visibility: 7mi
Dew Point: 30°   Wind: 6mph
Humidity: 86%   Direction: 120°ESE
Pressure: 29.87"   Gusts: NA
Location:  40.9686°N, 89.597°W
Report Text: KC75 221155Z AUTO 12005KT 7SM OVC050 01/M01 A2987 RMK AO2 T00081013 10018 20008
Loading
Personal Weather Stations






























Interactive Weather Map New forecast layout! Learn more

10-Day Weather Forecast

Advertisements
Track Severe Weather on mobile